createdAt,value
2018-12-16T00:00:28.155Z,2.06
2018-12-16T00:01:42.823Z,1.91
2018-12-16T00:02:42.836Z,1.88
2018-12-16T00:03:28.201Z,1.88
2018-12-16T00:04:28.196Z,1.9
2018-12-16T00:05:42.882Z,1.87
2018-12-16T00:06:28.227Z,1.84
2018-12-16T00:07:28.335Z,1.95
2018-12-16T00:08:28.250Z,1.84
2018-12-16T00:09:28.258Z,1.84
2018-12-16T00:10:28.270Z,1.99
2018-12-16T00:11:28.386Z,2
2018-12-16T00:12:28.295Z,2.02
2018-12-16T00:13:28.358Z,2.02
2018-12-16T00:14:28.322Z,1.98
2018-12-16T00:15:28.339Z,1.98
2018-12-16T00:16:28.100Z,1.99
2018-12-16T00:17:28.361Z,1.93
2018-12-16T00:18:43.033Z,2
2018-12-16T00:19:28.384Z,1.86
2018-12-16T00:20:43.059Z,1.84
2018-12-16T00:21:28.410Z,1.93
2018-12-16T00:22:34.729Z,1.99
2018-12-16T00:23:28.431Z,2.02
2018-12-16T00:24:28.446Z,2.03
2018-12-16T00:25:28.458Z,2.05
2018-12-16T00:26:28.470Z,2
2018-12-16T00:27:28.237Z,2.03
2018-12-16T00:28:28.501Z,2.02
2018-12-16T00:29:28.518Z,2.02
2018-12-16T00:30:28.518Z,1.95
2018-12-16T00:31:28.534Z,1.88
2018-12-16T00:32:28.548Z,1.87
2018-12-16T00:33:28.555Z,1.84
2018-12-16T00:34:28.617Z,1.86
2018-12-16T00:35:28.581Z,1.81
2018-12-16T00:36:28.597Z,1.95
2018-12-16T00:37:28.607Z,1.87
2018-12-16T00:38:28.618Z,1.86
2018-12-16T00:39:28.629Z,1.88
2018-12-16T00:40:28.640Z,1.84
2018-12-16T00:41:28.653Z,1.91
2018-12-16T00:42:28.671Z,1.79
2018-12-16T00:43:28.679Z,1.8
2018-12-16T00:44:28.742Z,1.88
2018-12-16T00:45:28.702Z,1.79
2018-12-16T00:48:43.404Z,1.77
2018-12-16T00:49:43.414Z,1.8
2018-12-16T00:50:43.428Z,1.73
2018-12-16T00:51:28.778Z,1.83
2018-12-16T00:52:43.455Z,1.79
2018-12-16T00:53:28.801Z,1.8
2018-12-16T00:54:28.816Z,1.79
2018-12-16T00:55:28.829Z,1.84
2018-12-16T00:56:28.840Z,1.87
2018-12-16T00:57:28.857Z,1.83
2018-12-16T00:58:28.868Z,1.86
2018-12-16T00:59:28.877Z,1.84
2018-12-16T01:00:28.888Z,1.77
2018-12-16T01:01:28.901Z,1.8
2018-12-16T01:02:28.911Z,1.73
2018-12-16T01:03:28.926Z,1.77
2018-12-16T01:04:28.936Z,1.8
2018-12-16T01:05:28.950Z,1.86
2018-12-16T01:06:28.964Z,1.9
2018-12-16T01:07:28.972Z,1.9
2018-12-16T01:08:43.648Z,1.93
2018-12-16T01:09:28.996Z,1.91
2018-12-16T01:10:29.008Z,1.8
2018-12-16T01:11:29.023Z,1.86
2018-12-16T01:12:29.036Z,1.77
2018-12-16T01:13:29.047Z,1.76
2018-12-16T01:14:29.059Z,1.84
2018-12-16T01:15:29.071Z,1.83
2018-12-16T01:16:29.083Z,1.81
2018-12-16T01:17:29.098Z,1.86
2018-12-16T01:18:29.114Z,1.86
2018-12-16T01:19:29.122Z,1.77
2018-12-16T01:20:29.139Z,1.81
2018-12-16T01:21:29.143Z,1.84
2018-12-16T01:22:29.157Z,1.87
2018-12-16T01:23:29.170Z,1.79
2018-12-16T01:24:43.844Z,1.84
2018-12-16T01:25:29.193Z,1.8
2018-12-16T01:26:29.218Z,1.86
2018-12-16T01:27:29.222Z,1.79
2018-12-16T01:28:29.232Z,1.83
2018-12-16T01:29:29.243Z,1.76
2018-12-16T01:30:29.307Z,1.68
2018-12-16T01:31:29.269Z,1.76
2018-12-16T01:32:29.283Z,1.63
2018-12-16T01:33:29.303Z,1.69
2018-12-16T01:34:29.314Z,1.76
2018-12-16T01:35:29.317Z,1.77
2018-12-16T01:36:43.991Z,1.7
2018-12-16T01:37:29.342Z,1.76
2018-12-16T01:38:29.357Z,1.68
2018-12-16T01:39:29.368Z,1.76
2018-12-16T01:40:44.039Z,1.72
2018-12-16T01:41:29.395Z,1.73
2018-12-16T01:42:29.403Z,1.8
2018-12-16T01:43:29.418Z,1.77
2018-12-16T01:44:29.425Z,1.73
2018-12-16T01:45:29.438Z,1.79
2018-12-16T01:46:29.451Z,1.81
2018-12-16T01:47:29.464Z,1.72
2018-12-16T01:49:29.493Z,1.69
2018-12-16T01:51:44.176Z,1.69
2018-12-16T01:52:29.529Z,1.68
2018-12-16T01:53:44.199Z,1.66
2018-12-16T01:54:29.551Z,1.63
2018-12-16T01:55:44.227Z,1.65
2018-12-16T01:56:29.674Z,1.76
2018-12-16T01:57:29.584Z,1.7
2018-12-16T01:58:29.605Z,1.7
2018-12-16T01:59:29.613Z,1.73
2018-12-16T02:00:29.624Z,1.72
2018-12-16T02:01:29.635Z,1.77
2018-12-16T02:02:29.647Z,1.69
2018-12-16T02:03:29.659Z,1.66
2018-12-16T02:04:29.671Z,1.63
2018-12-16T02:05:29.682Z,1.63
2018-12-16T02:06:29.795Z,1.62
2018-12-16T02:07:29.725Z,1.66
2018-12-16T02:08:31.011Z,1.58
2018-12-16T02:09:29.740Z,1.66
2018-12-16T02:10:29.748Z,1.68
2018-12-16T02:11:29.768Z,1.7
2018-12-16T02:12:29.768Z,1.68
2018-12-16T02:13:29.783Z,1.69
2018-12-16T02:14:29.794Z,1.68
2018-12-16T02:15:29.807Z,1.62
2018-12-16T02:16:29.816Z,1.72
2018-12-16T02:17:29.836Z,1.72
2018-12-16T02:18:29.842Z,1.69
2018-12-16T02:19:29.853Z,1.65
2018-12-16T02:21:29.997Z,1.7
2018-12-16T02:22:29.894Z,1.76
2018-12-16T02:23:29.913Z,1.7
2018-12-16T02:24:44.578Z,1.58
2018-12-16T02:25:29.928Z,1.69
2018-12-16T02:26:29.994Z,1.65
2018-12-16T02:27:44.614Z,1.66
2018-12-16T02:28:29.966Z,1.6
2018-12-16T02:29:29.980Z,1.6
2018-12-16T02:30:29.988Z,1.58
2018-12-16T02:31:29.762Z,1.58
2018-12-16T02:32:30.159Z,1.55
2018-12-16T02:34:30.037Z,1.5
2018-12-16T02:35:30.059Z,1.5
2018-12-16T02:37:30.077Z,1.54
2018-12-16T02:38:44.756Z,1.58
2018-12-16T02:39:30.099Z,1.58
2018-12-16T02:40:44.774Z,1.66
2018-12-16T02:41:30.126Z,1.65
2018-12-16T02:42:30.135Z,1.58
2018-12-16T02:43:44.826Z,1.62
2018-12-16T02:44:30.205Z,1.58
2018-12-16T02:45:30.173Z,1.62
2018-12-16T02:46:30.188Z,1.62
2018-12-16T02:47:30.199Z,1.7
2018-12-16T02:48:30.208Z,1.63
2018-12-16T02:49:30.220Z,1.6
2018-12-16T02:50:30.242Z,1.6
2018-12-16T02:51:30.261Z,1.58
2018-12-16T02:53:30.332Z,1.58
2018-12-16T02:54:30.284Z,1.6
2018-12-16T02:55:30.298Z,1.58
2018-12-16T02:56:44.969Z,1.59
2018-12-16T02:57:30.320Z,1.6
2018-12-16T02:58:30.334Z,1.52
2018-12-16T02:59:45.014Z,1.52
2018-12-16T03:00:30.167Z,1.58
2018-12-16T03:01:30.395Z,1.5
2018-12-16T03:02:30.379Z,1.54
2018-12-16T03:03:30.395Z,1.65
2018-12-16T03:04:45.154Z,1.55
2018-12-16T03:05:30.421Z,1.63
2018-12-16T03:06:30.435Z,1.66
2018-12-16T03:07:45.106Z,1.65
2018-12-16T03:08:45.120Z,1.6
2018-12-16T03:09:30.222Z,1.63
2018-12-16T03:10:30.487Z,1.62
2018-12-16T03:11:30.492Z,1.55
2018-12-16T03:12:30.500Z,1.6
2018-12-16T03:13:30.524Z,1.55
2018-12-16T03:14:30.536Z,1.52
2018-12-16T03:15:45.199Z,1.59
2018-12-16T03:16:30.557Z,1.65
2018-12-16T03:17:30.664Z,1.6
2018-12-16T03:18:30.578Z,1.5
2018-12-16T03:19:30.595Z,1.59
2018-12-16T03:20:30.609Z,1.62
2018-12-16T03:21:30.613Z,1.63
2018-12-16T03:22:30.683Z,1.55
2018-12-16T03:23:30.657Z,1.65
2018-12-16T03:24:30.652Z,1.6
2018-12-16T03:25:30.658Z,1.58
2018-12-16T03:26:38.158Z,1.59
2018-12-16T03:27:30.692Z,1.54
2018-12-16T03:28:30.753Z,1.52
2018-12-16T03:29:30.724Z,1.51
2018-12-16T03:30:45.402Z,1.54
2018-12-16T03:31:30.881Z,1.55
2018-12-16T03:32:30.774Z,1.62
2018-12-16T03:33:30.763Z,1.6
2018-12-16T03:34:30.776Z,1.63
2018-12-16T03:35:30.792Z,1.62
2018-12-16T03:36:30.797Z,1.6
2018-12-16T03:37:30.814Z,1.59
2018-12-16T03:38:30.868Z,1.54
2018-12-16T03:39:30.836Z,1.6
2018-12-16T03:40:30.846Z,1.6
2018-12-16T03:41:45.520Z,1.59
2018-12-16T03:42:45.533Z,1.66
2018-12-16T03:43:45.558Z,1.58
2018-12-16T03:44:30.893Z,1.54
2018-12-16T03:45:30.926Z,1.54
2018-12-16T03:46:30.966Z,1.6
2018-12-16T03:48:30.944Z,1.5
2018-12-16T03:49:30.954Z,1.63
2018-12-16T03:50:30.981Z,1.54
2018-12-16T03:51:30.983Z,1.58
2018-12-16T03:52:30.989Z,1.58
2018-12-16T03:53:31.009Z,1.58
2018-12-16T03:54:31.014Z,1.55
2018-12-16T03:55:31.025Z,1.62
2018-12-16T03:56:31.046Z,1.54
2018-12-16T03:57:31.075Z,1.55
2018-12-16T03:58:31.122Z,1.5
2018-12-16T03:59:31.081Z,1.48
2018-12-16T04:00:31.105Z,1.5
2018-12-16T04:01:31.112Z,1.52
2018-12-16T04:02:45.774Z,1.52
2018-12-16T04:03:31.205Z,1.51
2018-12-16T04:04:31.153Z,1.52
2018-12-16T04:05:31.151Z,1.63
2018-12-16T04:06:31.162Z,1.63
2018-12-16T04:07:31.178Z,1.55
2018-12-16T04:08:31.190Z,1.51
2018-12-16T04:09:31.206Z,1.6
2018-12-16T04:10:31.262Z,1.6
2018-12-16T04:11:45.984Z,1.47
2018-12-16T04:12:31.246Z,1.52
2018-12-16T04:13:31.246Z,1.48
2018-12-16T04:14:31.261Z,1.48
2018-12-16T04:15:31.270Z,1.63
2018-12-16T04:16:31.288Z,1.65
2018-12-16T04:17:31.299Z,1.45
2018-12-16T04:18:45.970Z,1.42
2018-12-16T04:19:31.321Z,1.42
2018-12-16T04:20:31.336Z,1.45
2018-12-16T04:21:31.346Z,1.52
2018-12-16T04:22:31.356Z,1.52
2018-12-16T04:23:32.400Z,1.62
2018-12-16T04:24:31.417Z,1.44
2018-12-16T04:25:31.392Z,1.62
2018-12-16T04:26:31.470Z,1.54
2018-12-16T04:27:31.431Z,1.58
2018-12-16T04:29:31.450Z,1.54
2018-12-16T04:30:46.114Z,1.51
2018-12-16T04:31:46.127Z,1.47
2018-12-16T04:32:31.483Z,1.51
2018-12-16T04:33:31.542Z,1.51
2018-12-16T04:34:46.168Z,1.44
2018-12-16T04:35:31.551Z,1.44
2018-12-16T04:36:31.528Z,1.42
2018-12-16T04:37:31.549Z,1.55
2018-12-16T04:38:31.550Z,1.47
2018-12-16T04:39:31.575Z,1.45
2018-12-16T04:40:46.243Z,1.4
2018-12-16T04:42:31.653Z,1.37
2018-12-16T04:44:31.620Z,1.45
2018-12-16T04:45:31.698Z,1.4
2018-12-16T04:46:31.645Z,1.47
2018-12-16T04:47:31.665Z,1.32
2018-12-16T04:48:31.432Z,1.42
2018-12-16T04:49:31.732Z,1.42
2018-12-16T04:50:46.365Z,1.36
2018-12-16T04:51:31.720Z,1.29
2018-12-16T04:52:31.722Z,1.37
2018-12-16T04:53:39.305Z,1.4
2018-12-16T04:54:31.743Z,1.36
2018-12-16T04:55:31.755Z,1.3
2018-12-16T04:56:31.774Z,1.44
2018-12-16T04:58:31.543Z,1.44
2018-12-16T04:59:31.812Z,1.51
2018-12-16T05:01:31.832Z,1.4
2018-12-16T05:02:46.503Z,1.41
2018-12-16T05:03:46.514Z,1.41
2018-12-16T05:04:31.865Z,1.55
2018-12-16T05:05:46.538Z,1.42
2018-12-16T05:06:31.896Z,1.42
2018-12-16T05:07:31.900Z,1.52
2018-12-16T05:08:31.916Z,1.45
2018-12-16T05:09:31.977Z,1.51
2018-12-16T05:10:31.936Z,1.41
2018-12-16T05:11:31.949Z,1.44
2018-12-16T05:12:31.962Z,1.4
2018-12-16T05:13:31.977Z,1.5
2018-12-16T05:14:31.989Z,1.41
2018-12-16T05:15:32.051Z,1.48
2018-12-16T05:16:32.014Z,1.36
2018-12-16T05:17:46.688Z,1.33
2018-12-16T05:18:32.041Z,1.34
2018-12-16T05:19:32.100Z,1.5
2018-12-16T05:20:32.058Z,1.36
2018-12-16T05:21:32.071Z,1.37
2018-12-16T05:22:32.081Z,1.36
2018-12-16T05:23:32.093Z,1.47
2018-12-16T05:24:32.209Z,1.33
2018-12-16T05:25:32.121Z,1.36
2018-12-16T05:26:32.230Z,1.47
2018-12-16T05:27:32.143Z,1.5
2018-12-16T05:28:32.155Z,1.36
2018-12-16T05:29:32.168Z,1.45
2018-12-16T05:30:32.190Z,1.4
2018-12-16T05:31:32.196Z,1.36
2018-12-16T05:32:32.829Z,1.51
2018-12-16T05:33:32.217Z,1.44
2018-12-16T05:34:32.230Z,1.52
2018-12-16T05:35:32.244Z,1.42
2018-12-16T05:36:32.003Z,1.36
2018-12-16T05:37:46.927Z,1.42
2018-12-16T05:38:32.274Z,1.37
2018-12-16T05:39:32.148Z,1.4
2018-12-16T05:40:32.314Z,1.4
2018-12-16T05:41:32.312Z,1.4
2018-12-16T05:42:32.325Z,1.37
2018-12-16T05:43:32.342Z,1.37
2018-12-16T05:44:32.351Z,1.51
2018-12-16T05:45:32.360Z,1.45
2018-12-16T05:46:32.390Z,1.42
2018-12-16T05:47:32.437Z,1.34
2018-12-16T05:48:32.400Z,1.33
2018-12-16T05:49:47.074Z,1.4
2018-12-16T05:50:32.423Z,1.34
2018-12-16T05:51:47.094Z,1.27
2018-12-16T05:52:32.443Z,1.33
2018-12-16T05:53:51.029Z,1.14
2018-12-16T05:54:32.472Z,1.15
2018-12-16T05:56:32.502Z,1.32
2018-12-16T05:57:32.505Z,1.36
2018-12-16T05:58:32.518Z,1.34
2018-12-16T05:59:32.531Z,1.32
2018-12-16T06:00:32.551Z,1.34
2018-12-16T06:01:47.269Z,1.33
2018-12-16T06:03:32.579Z,1.4
2018-12-16T06:04:32.590Z,1.36
2018-12-16T06:05:32.600Z,1.32
2018-12-16T06:06:47.276Z,1.32
2018-12-16T06:07:32.629Z,1.34
2018-12-16T06:08:32.641Z,1.33
2018-12-16T06:09:47.363Z,1.33
2018-12-16T06:10:32.661Z,1.34
2018-12-16T06:11:32.674Z,1.33
2018-12-16T06:12:32.687Z,1.32
2018-12-16T06:13:32.696Z,1.3
2018-12-16T06:14:32.712Z,1.32
2018-12-16T06:15:32.723Z,1.36
2018-12-16T06:16:32.734Z,1.41
2018-12-16T06:17:32.750Z,1.32
2018-12-16T06:18:32.509Z,1.27
2018-12-16T06:19:32.770Z,1.41
2018-12-16T06:20:32.780Z,1.4
2018-12-16T06:21:32.850Z,1.42
2018-12-16T06:22:47.469Z,1.42
2018-12-16T06:23:32.820Z,1.36
2018-12-16T06:24:47.491Z,1.42
2018-12-16T06:25:47.503Z,1.37
2018-12-16T06:26:32.905Z,1.42
2018-12-16T06:27:32.867Z,1.41
2018-12-16T06:28:32.879Z,1.34
2018-12-16T06:29:32.893Z,1.4
2018-12-16T06:30:32.905Z,1.36
2018-12-16T06:31:32.913Z,1.32
2018-12-16T06:32:32.927Z,1.33
2018-12-16T06:34:32.956Z,1.37
2018-12-16T06:35:32.960Z,1.4
2018-12-16T06:36:32.975Z,1.34
2018-12-16T06:37:32.993Z,1.33
2018-12-16T06:38:47.661Z,1.22
2018-12-16T06:39:33.010Z,1.36
2018-12-16T06:40:47.686Z,1.33
2018-12-16T06:41:33.035Z,1.33
2018-12-16T06:42:33.050Z,1.37
2018-12-16T06:43:33.109Z,1.4
2018-12-16T06:44:33.070Z,1.37
2018-12-16T06:45:33.083Z,1.34
2018-12-16T06:46:33.097Z,1.36
2018-12-16T06:47:33.107Z,1.33
2018-12-16T06:48:33.123Z,1.42
2018-12-16T06:50:33.145Z,1.33
2018-12-16T06:51:33.204Z,1.34
2018-12-16T06:52:33.167Z,1.32
2018-12-16T06:53:47.891Z,1.34
2018-12-16T06:55:33.205Z,1.29
2018-12-16T06:56:33.215Z,1.32
2018-12-16T06:57:33.225Z,1.33
2018-12-16T06:58:33.240Z,1.41
2018-12-16T06:59:33.306Z,1.36
2018-12-16T07:00:33.265Z,1.3
2018-12-16T07:01:33.325Z,1.23
2018-12-16T07:02:33.286Z,1.37
2018-12-16T07:03:33.305Z,1.36
2018-12-16T07:04:33.310Z,1.33
2018-12-16T07:05:33.322Z,1.3
2018-12-16T07:06:33.339Z,1.29
2018-12-16T07:07:33.346Z,1.3
2018-12-16T07:08:33.409Z,1.32
2018-12-16T07:09:48.033Z,1.3
2018-12-16T07:10:33.384Z,1.29
2018-12-16T07:11:33.400Z,1.18
2018-12-16T07:12:48.092Z,1.2
2018-12-16T07:13:48.130Z,1.22
2018-12-16T07:14:33.503Z,1.15
2018-12-16T07:15:33.463Z,1.22
2018-12-16T07:16:33.470Z,1.22
2018-12-16T07:17:33.502Z,1.29
2018-12-16T07:18:33.312Z,1.29
2018-12-16T07:19:33.496Z,1.4
2018-12-16T07:20:33.535Z,1.34
2018-12-16T07:21:33.548Z,1.36
2018-12-16T07:22:33.526Z,1.32
2018-12-16T07:23:33.546Z,1.34
2018-12-16T07:24:48.213Z,1.4
2018-12-16T07:25:48.249Z,1.36
2018-12-16T07:26:33.658Z,1.41
2018-12-16T07:27:33.610Z,1.33
2018-12-16T07:28:48.263Z,1.3
2018-12-16T07:29:33.637Z,1.41
2018-12-16T07:30:33.633Z,1.41
2018-12-16T07:31:33.672Z,1.33
2018-12-16T07:32:33.664Z,1.42
2018-12-16T07:34:33.716Z,1.34
2018-12-16T07:35:33.680Z,1.37
2018-12-16T07:36:33.730Z,1.42
2018-12-16T07:37:33.752Z,1.42
2018-12-16T07:38:33.775Z,1.42
2018-12-16T07:39:33.785Z,1.36
2018-12-16T07:40:33.824Z,1.36
2018-12-16T07:41:48.430Z,1.34
2018-12-16T07:42:33.802Z,1.44
2018-12-16T07:43:33.803Z,1.54
2018-12-16T07:44:48.501Z,1.51
2018-12-16T07:45:33.850Z,1.44
2018-12-16T07:46:33.819Z,1.44
2018-12-16T07:47:33.613Z,1.41
2018-12-16T07:48:33.907Z,1.36
2018-12-16T07:49:33.878Z,1.42
2018-12-16T07:50:33.876Z,1.51
2018-12-16T07:51:33.899Z,1.54
2018-12-16T07:52:33.889Z,1.58
2018-12-16T07:53:33.907Z,1.58
2018-12-16T07:54:33.937Z,1.63
2018-12-16T07:55:33.938Z,1.42
2018-12-16T07:56:48.627Z,1.47
2018-12-16T07:57:34.024Z,1.51
2018-12-16T07:58:33.997Z,1.51
2018-12-16T07:59:48.628Z,1.54
2018-12-16T08:00:48.680Z,1.47
2018-12-16T08:01:34.046Z,1.42
2018-12-16T08:02:34.022Z,1.47
2018-12-16T08:03:34.079Z,1.45
2018-12-16T08:04:34.085Z,1.59
2018-12-16T08:05:34.166Z,1.52
2018-12-16T08:06:34.091Z,1.5
2018-12-16T08:07:34.162Z,1.45
2018-12-16T08:08:34.073Z,1.45
2018-12-16T08:12:34.125Z,1.33
2018-12-16T08:13:34.137Z,1.4
2018-12-16T08:14:34.149Z,1.33
2018-12-16T08:15:48.822Z,1.51
2018-12-16T08:16:34.172Z,1.44
2018-12-16T08:17:34.185Z,1.47
2018-12-16T08:18:34.197Z,1.55
2018-12-16T08:19:34.208Z,1.45
2018-12-16T08:20:34.221Z,1.59
2018-12-16T08:21:34.232Z,1.62
2018-12-16T08:22:34.275Z,1.6
2018-12-16T08:23:35.469Z,1.59
2018-12-16T08:24:34.273Z,1.63
2018-12-16T08:25:34.280Z,1.59
2018-12-16T08:26:34.296Z,1.51
2018-12-16T08:27:34.302Z,1.52
2018-12-16T08:28:34.066Z,1.58
2018-12-16T08:29:48.991Z,1.6
2018-12-16T08:30:34.339Z,1.54
2018-12-16T08:31:34.419Z,1.52
2018-12-16T08:32:34.366Z,1.58
2018-12-16T08:34:34.437Z,1.63
2018-12-16T08:35:34.399Z,1.6
2018-12-16T08:36:34.415Z,1.59
2018-12-16T08:37:34.425Z,1.65
2018-12-16T08:38:34.486Z,1.55
2018-12-16T08:40:34.462Z,1.55
2018-12-16T08:41:34.477Z,1.66
2018-12-16T08:42:34.485Z,1.52
2018-12-16T08:43:34.498Z,1.47
2018-12-16T08:44:34.507Z,1.52
2018-12-16T08:45:34.525Z,1.63
2018-12-16T08:47:49.214Z,1.62
2018-12-16T08:48:34.555Z,1.58
2018-12-16T08:49:34.569Z,1.62
2018-12-16T08:50:34.630Z,1.65
2018-12-16T08:51:34.594Z,1.69
2018-12-16T08:52:34.640Z,1.65
2018-12-16T08:53:34.715Z,1.7
2018-12-16T08:54:34.915Z,1.7
2018-12-16T08:55:34.691Z,1.73
2018-12-16T08:56:34.657Z,1.69
2018-12-16T08:57:34.670Z,1.76
2018-12-16T08:58:49.390Z,1.77
2018-12-16T08:59:49.352Z,1.73
2018-12-16T09:00:34.705Z,1.76
2018-12-16T09:01:34.714Z,1.79
2018-12-16T09:02:34.725Z,1.73
2018-12-16T09:03:49.402Z,1.8
2018-12-16T09:04:34.750Z,1.7
2018-12-16T09:05:34.864Z,1.73
2018-12-16T09:06:35.911Z,1.7
2018-12-16T09:07:41.981Z,1.65
2018-12-16T09:08:34.798Z,1.59
2018-12-16T09:09:34.817Z,1.55
2018-12-16T09:10:53.685Z,1.65
2018-12-16T09:12:34.850Z,1.7
2018-12-16T09:13:34.862Z,1.72
2018-12-16T09:14:49.537Z,1.76
2018-12-16T09:15:34.885Z,1.84
2018-12-16T09:16:34.899Z,1.84
2018-12-16T09:17:34.909Z,1.83
2018-12-16T09:18:34.681Z,1.86
2018-12-16T09:19:49.594Z,1.9
2018-12-16T09:20:34.943Z,1.99
2018-12-16T09:21:34.963Z,1.95
2018-12-16T09:22:34.971Z,2
2018-12-16T09:23:34.982Z,2
2018-12-16T09:24:41.942Z,2.02
2018-12-16T09:25:35.005Z,2.03
2018-12-16T09:27:35.035Z,1.91
2018-12-16T09:28:35.042Z,1.87
2018-12-16T09:29:35.055Z,1.95
2018-12-16T09:32:35.093Z,1.9
2018-12-16T09:33:35.105Z,1.95
2018-12-16T09:34:35.167Z,1.91
2018-12-16T09:35:49.789Z,1.81
2018-12-16T09:36:35.139Z,1.8
2018-12-16T09:37:35.152Z,1.81
2018-12-16T09:38:35.168Z,1.9
2018-12-16T09:39:35.184Z,1.88
2018-12-16T09:40:35.190Z,1.9
2018-12-16T09:41:35.208Z,1.99
2018-12-16T09:42:35.214Z,1.93
2018-12-16T09:44:35.238Z,1.98
2018-12-16T09:45:35.253Z,2.16
2018-12-16T09:46:35.263Z,2.07
2018-12-16T09:47:35.324Z,2.07
2018-12-16T09:48:35.343Z,2.14
2018-12-16T09:49:35.300Z,2.03
2018-12-16T09:50:49.974Z,2.09
2018-12-16T09:51:35.374Z,2.16
2018-12-16T09:53:35.348Z,1.91
2018-12-16T09:55:35.376Z,2.17
2018-12-16T09:56:35.395Z,2.03
2018-12-16T09:57:35.401Z,1.99
2018-12-16T09:59:35.422Z,2.02
2018-12-16T10:01:35.449Z,1.99
2018-12-16T10:02:50.224Z,1.99
2018-12-16T10:03:35.480Z,2.16
2018-12-16T10:04:35.488Z,2.1
2018-12-16T10:05:35.506Z,2.07
2018-12-16T10:06:35.512Z,1.99
2018-12-16T10:07:35.522Z,2
2018-12-16T10:08:35.536Z,2
2018-12-16T10:09:35.548Z,1.99
2018-12-16T10:10:35.562Z,2.07
2018-12-16T10:11:35.570Z,2
2018-12-16T10:12:35.653Z,2.14
2018-12-16T10:13:35.597Z,2.17
2018-12-16T10:14:35.606Z,2.14
2018-12-16T10:15:35.634Z,2.16
2018-12-16T10:16:35.637Z,2.14
2018-12-16T10:18:35.657Z,2.05
2018-12-16T10:19:35.669Z,1.98
2018-12-16T10:20:35.683Z,2
2018-12-16T10:21:35.694Z,2.05
2018-12-16T10:22:50.370Z,1.98
2018-12-16T10:23:35.720Z,2.05
2018-12-16T10:24:35.735Z,2.06
2018-12-16T10:25:35.743Z,2.06
2018-12-16T10:26:35.755Z,2.14
2018-12-16T10:27:35.771Z,2.2
2018-12-16T10:28:35.787Z,2.14
2018-12-16T10:29:35.800Z,2.14
2018-12-16T10:30:35.815Z,2.07
2018-12-16T10:31:37.019Z,2.09
2018-12-16T10:32:37.317Z,2.14
2018-12-16T10:33:50.555Z,2.03
2018-12-16T10:34:50.518Z,1.99
2018-12-16T10:35:50.531Z,2.02
2018-12-16T10:36:50.541Z,2.14
2018-12-16T10:37:35.893Z,2.09
2018-12-16T10:39:35.925Z,2
2018-12-16T10:40:35.932Z,1.9
2018-12-16T10:41:35.942Z,1.84
2018-12-16T10:42:35.957Z,1.84
2018-12-16T10:43:35.979Z,1.86
2018-12-16T10:44:35.780Z,1.84
2018-12-16T10:45:35.991Z,1.87
2018-12-16T10:46:36.012Z,1.83
2018-12-16T10:48:36.033Z,1.86
2018-12-16T10:49:36.045Z,1.84
2018-12-16T10:50:50.724Z,1.86
2018-12-16T10:51:36.066Z,1.99
2018-12-16T10:52:36.078Z,2
2018-12-16T10:53:36.624Z,2.03
2018-12-16T10:54:50.764Z,2.06
2018-12-16T10:55:36.165Z,2.03
2018-12-16T10:56:36.125Z,1.99
2018-12-16T10:57:36.147Z,1.99
2018-12-16T10:58:36.150Z,2.05
2018-12-16T10:59:36.165Z,2.03
2018-12-16T11:00:36.178Z,1.98
2018-12-16T11:01:36.238Z,2.06
2018-12-16T11:02:36.198Z,2.17
2018-12-16T11:03:36.212Z,2.09
2018-12-16T11:04:36.223Z,2.05
2018-12-16T11:05:36.236Z,2.12
2018-12-16T11:06:50.912Z,2.07
2018-12-16T11:07:36.261Z,2
2018-12-16T11:08:36.280Z,2.1
2018-12-16T11:09:50.962Z,2.09
2018-12-16T11:10:50.960Z,2.17
2018-12-16T11:11:36.317Z,2.12
2018-12-16T11:12:36.372Z,2.06
2018-12-16T11:13:36.345Z,1.93
2018-12-16T11:14:36.347Z,2.02
2018-12-16T11:15:36.365Z,1.99
2018-12-16T11:16:36.374Z,2.03
2018-12-16T11:17:36.385Z,2.06
2018-12-16T11:18:36.447Z,2
2018-12-16T11:20:36.423Z,2.07
2018-12-16T11:21:36.434Z,2.1
2018-12-16T11:22:36.445Z,2.25
2018-12-16T11:23:36.462Z,2.31
2018-12-16T11:24:36.471Z,2.23
2018-12-16T11:25:51.150Z,2.14
2018-12-16T11:26:36.498Z,2.23
2018-12-16T11:27:36.507Z,2.23
2018-12-16T11:28:36.528Z,2.25
2018-12-16T11:29:36.535Z,2.12
2018-12-16T11:30:36.545Z,2.09
2018-12-16T11:31:36.660Z,2.12
2018-12-16T11:32:36.632Z,2.1
2018-12-16T11:34:36.349Z,2.14
2018-12-16T11:35:36.610Z,2.18
2018-12-16T11:36:36.661Z,2.17
2018-12-16T11:37:36.633Z,2.1
2018-12-16T11:38:36.695Z,2.09
2018-12-16T11:39:36.657Z,2.1
2018-12-16T11:40:36.671Z,2.16
2018-12-16T11:41:36.681Z,2.18
2018-12-16T11:42:36.702Z,2.1
2018-12-16T11:43:36.807Z,2.17
2018-12-16T11:44:36.724Z,2.16
2018-12-16T11:45:36.730Z,2.21
2018-12-16T11:46:36.744Z,2.23
2018-12-16T11:47:36.756Z,2.23
2018-12-16T11:48:36.771Z,2.23
2018-12-16T11:49:36.835Z,2.27
2018-12-16T11:50:36.546Z,2.24
2018-12-16T11:52:36.816Z,2.2
2018-12-16T11:53:36.829Z,2.16
2018-12-16T11:54:51.504Z,2.17
2018-12-16T11:55:36.860Z,2.09
2018-12-16T11:56:36.626Z,2.12
2018-12-16T11:57:51.542Z,2.24
2018-12-16T11:58:36.900Z,2.21
2018-12-16T11:59:36.974Z,2.14
2018-12-16T12:00:36.916Z,2.12
2018-12-16T12:01:36.929Z,2.14
2018-12-16T12:02:37.770Z,2.16
2018-12-16T12:03:36.962Z,2.09
2018-12-16T12:04:36.968Z,2.25
2018-12-16T12:05:36.979Z,2.28
2018-12-16T12:06:37.000Z,2.18
2018-12-16T12:07:37.009Z,2.27
2018-12-16T12:08:37.021Z,2.21
2018-12-16T12:09:51.692Z,2.21
2018-12-16T12:10:37.043Z,2.31
2018-12-16T12:11:51.717Z,2.23
2018-12-16T12:12:37.066Z,2.31
2018-12-16T12:13:51.741Z,2.18
2018-12-16T12:14:37.094Z,2.25
2018-12-16T12:15:37.103Z,2.34
2018-12-16T12:16:37.119Z,2.34
2018-12-16T12:17:37.129Z,2.42
2018-12-16T12:19:37.155Z,2.31
2018-12-16T12:20:37.169Z,2.27
2018-12-16T12:22:37.190Z,2.2
2018-12-16T12:23:37.307Z,2.24
2018-12-16T12:24:51.880Z,2.07
2018-12-16T12:25:37.249Z,2.14
2018-12-16T12:26:51.904Z,2.06
2018-12-16T12:27:37.253Z,2.2
2018-12-16T12:28:37.265Z,2.21
2018-12-16T12:29:51.940Z,2.1
2018-12-16T12:30:37.291Z,2.18
2018-12-16T12:31:37.306Z,2.23
2018-12-16T12:32:37.319Z,2.2
2018-12-16T12:33:37.362Z,2.18
2018-12-16T12:34:37.396Z,2.25
2018-12-16T12:35:37.357Z,2.23
2018-12-16T12:36:37.132Z,2.27
2018-12-16T12:37:37.707Z,2.25
2018-12-16T12:38:37.391Z,2.2
2018-12-16T12:40:37.467Z,2.28
2018-12-16T12:41:52.091Z,2.34
2018-12-16T12:42:52.104Z,2.34
2018-12-16T12:43:37.455Z,2.28
2018-12-16T12:44:37.465Z,2.3
2018-12-16T12:45:52.141Z,2.36
2018-12-16T12:46:37.491Z,2.42
2018-12-16T12:47:37.505Z,2.41
2018-12-16T12:48:37.635Z,2.41
2018-12-16T12:49:37.527Z,2.38
2018-12-16T12:50:37.544Z,2.34
2018-12-16T12:51:37.617Z,2.41
2018-12-16T12:52:37.567Z,2.3
2018-12-16T12:53:37.579Z,2.31
2018-12-16T12:54:37.599Z,2.25
2018-12-16T12:55:37.602Z,2.3
2018-12-16T12:57:37.733Z,2.23
2018-12-16T12:58:52.304Z,2.35
2018-12-16T12:59:37.656Z,2.27
2018-12-16T13:00:52.331Z,2.12
2018-12-16T13:01:37.683Z,2.23
2018-12-16T13:02:37.742Z,2.09
2018-12-16T13:04:37.723Z,2.09
2018-12-16T13:05:41.792Z,2.1
2018-12-16T13:06:37.744Z,2.12
2018-12-16T13:07:37.756Z,2.12
2018-12-16T13:08:37.821Z,2.03
2018-12-16T13:09:37.779Z,1.91
2018-12-16T13:10:37.791Z,1.86
2018-12-16T13:11:52.469Z,1.79
2018-12-16T13:12:52.480Z,1.88
2018-12-16T13:13:37.831Z,1.86
2018-12-16T13:14:37.844Z,1.95
2018-12-16T13:15:37.860Z,1.83
2018-12-16T13:16:37.866Z,1.87
2018-12-16T13:17:37.940Z,1.84
2018-12-16T13:18:37.944Z,1.79
2018-12-16T13:19:37.905Z,1.9
2018-12-16T13:20:37.917Z,1.84
2018-12-16T13:21:37.927Z,1.81
2018-12-16T13:22:38.039Z,1.99
2018-12-16T13:24:37.968Z,1.86
2018-12-16T13:25:40.365Z,1.99
2018-12-16T13:27:38.052Z,2.1
2018-12-16T13:28:38.018Z,2.14
2018-12-16T13:29:38.027Z,2.1
2018-12-16T13:30:38.042Z,2.07
2018-12-16T13:31:38.056Z,2.07
2018-12-16T13:32:52.776Z,2.1
2018-12-16T13:33:38.078Z,2.03
2018-12-16T13:34:38.090Z,1.99
2018-12-16T13:35:38.104Z,2.02
2018-12-16T13:36:38.113Z,1.83
2018-12-16T13:37:38.128Z,1.88
2018-12-16T13:38:38.148Z,2.07
2018-12-16T13:39:38.148Z,2
2018-12-16T13:40:38.164Z,1.91
2018-12-16T13:41:38.190Z,1.9
2018-12-16T13:42:38.210Z,1.93
2018-12-16T13:43:38.199Z,1.88
2018-12-16T13:44:38.214Z,2
2018-12-16T13:45:52.887Z,1.93
2018-12-16T13:46:52.898Z,1.9
2018-12-16T13:47:38.259Z,1.8
2018-12-16T13:48:52.981Z,1.84
2018-12-16T13:49:38.274Z,1.83
2018-12-16T13:50:38.286Z,1.91
2018-12-16T13:51:38.303Z,1.81
2018-12-16T13:52:38.313Z,1.86
2018-12-16T13:53:38.322Z,1.9
2018-12-16T13:54:38.334Z,1.81
2018-12-16T13:55:45.527Z,1.93
2018-12-16T13:56:38.360Z,1.8
2018-12-16T13:57:38.371Z,1.88
2018-12-16T13:59:38.398Z,1.91
2018-12-16T14:00:38.462Z,1.81
2018-12-16T14:01:38.425Z,1.79
2018-12-16T14:02:53.095Z,1.73
2018-12-16T14:03:38.444Z,1.73
2018-12-16T14:04:53.120Z,1.8
2018-12-16T14:05:38.470Z,1.72
2018-12-16T14:06:38.486Z,1.72
2018-12-16T14:07:38.601Z,1.72
2018-12-16T14:08:38.620Z,1.72
2018-12-16T14:09:38.520Z,1.77
2018-12-16T14:10:38.531Z,1.76
2018-12-16T14:11:38.545Z,1.73
2018-12-16T14:12:38.556Z,1.81